createdAt,value
2023-02-24T00:02:22.757Z,9.60
2023-02-24T00:04:52.722Z,9.60
2023-02-24T00:07:21.643Z,9.60
2023-02-24T00:09:50.453Z,9.50
2023-02-24T00:12:20.743Z,9.50
2023-02-24T00:14:49.900Z,9.40
2023-02-24T00:17:20.298Z,9.40
2023-02-24T00:19:49.153Z,9.50
2023-02-24T00:22:18.058Z,9.50
2023-02-24T00:24:46.940Z,9.40
2023-02-24T00:27:16.048Z,9.40
2023-02-24T00:29:47.876Z,9.40
2023-02-24T00:32:17.236Z,9.30
2023-02-24T00:34:49.782Z,9.30
2023-02-24T00:37:24.094Z,9.30
2023-02-24T00:39:57.582Z,9.30
2023-02-24T00:42:27.522Z,9.30
2023-02-24T00:44:58.959Z,9.30
2023-02-24T00:47:28.028Z,9.20
2023-02-24T00:49:58.504Z,9.20
2023-02-24T00:52:30.701Z,9.20
2023-02-24T00:54:59.830Z,9.20
2023-02-24T00:57:28.788Z,9.20
2023-02-24T00:59:58.979Z,9.20
2023-02-24T01:02:27.961Z,9.20
2023-02-24T01:04:58.185Z,9.30
2023-02-24T01:07:29.586Z,9.30
2023-02-24T01:09:58.520Z,9.30
2023-02-24T01:12:45.030Z,9.30
2023-02-24T01:15:13.851Z,9.30
2023-02-24T01:17:42.637Z,9.30
2023-02-24T01:20:18.507Z,9.30
2023-02-24T01:22:51.065Z,9.30
2023-02-24T01:25:20.829Z,9.30
2023-02-24T01:27:49.839Z,9.30
2023-02-24T01:30:18.896Z,9.30
2023-02-24T01:32:48.653Z,9.30
2023-02-24T01:35:19.439Z,9.30
2023-02-24T01:37:48.230Z,9.30
2023-02-24T01:40:21.830Z,9.30
2023-02-24T01:42:52.092Z,9.30
2023-02-24T01:45:30.324Z,9.30
2023-02-24T01:48:05.428Z,9.30
2023-02-24T01:50:39.691Z,9.30
2023-02-24T01:53:10.179Z,9.40
2023-02-24T01:55:47.256Z,9.40
2023-02-24T01:58:23.667Z,9.30
2023-02-24T02:00:53.299Z,9.30
2023-02-24T02:03:29.771Z,9.30
2023-02-24T02:06:04.769Z,9.30
2023-02-24T02:08:36.684Z,9.30
2023-02-24T02:11:09.086Z,9.30
2023-02-24T02:13:43.297Z,9.20
2023-02-24T02:16:54.391Z,9.20
2023-02-24T02:20:20.215Z,9.10
2023-02-24T02:23:15.008Z,9.20
2023-02-24T02:26:10.965Z,9.20
2023-02-24T02:29:34.313Z,9.20
2023-02-24T02:33:01.965Z,9.20
2023-02-24T02:35:39.810Z,9.20
2023-02-24T02:38:18.784Z,9.20
2023-02-24T02:40:59.586Z,9.20
2023-02-24T02:43:39.054Z,9.20
2023-02-24T02:46:17.684Z,9.20
2023-02-24T02:48:54.646Z,9.20
2023-02-24T02:51:38.821Z,9.20
2023-02-24T02:54:17.112Z,9.20
2023-02-24T02:56:53.294Z,9.20
2023-02-24T02:59:26.294Z,9.20
2023-02-24T03:02:11.807Z,9.20
2023-02-24T03:04:47.772Z,9.20
2023-02-24T03:07:21.363Z,9.10
2023-02-24T03:09:58.172Z,9.20
2023-02-24T03:12:33.103Z,9.20
2023-02-24T03:15:07.754Z,9.10
2023-02-24T03:17:43.643Z,9.20
2023-02-24T03:20:22.779Z,9.20
2023-02-24T03:23:02.549Z,9.20
2023-02-24T03:25:44.662Z,9.20
2023-02-24T03:28:22.569Z,9.20
2023-02-24T03:31:04.442Z,9.20
2023-02-24T03:33:41.282Z,9.10
2023-02-24T03:36:14.795Z,9.10
2023-02-24T03:38:49.555Z,9.10
2023-02-24T03:41:19.343Z,9.10
2023-02-24T03:43:51.233Z,9.10
2023-02-24T03:46:20.527Z,9.10
2023-02-24T03:48:57.756Z,9.10
2023-02-24T03:51:27.779Z,9.00
2023-02-24T03:54:19.779Z,9.00
2023-02-24T03:57:10.553Z,9.10
2023-02-24T03:59:58.237Z,9.00
2023-02-24T04:02:32.287Z,9.00
2023-02-24T04:05:13.816Z,9.00
2023-02-24T04:07:54.688Z,8.90
2023-02-24T04:10:32.678Z,9.00
2023-02-24T04:13:10.481Z,9.00
2023-02-24T04:15:45.633Z,8.90
2023-02-24T04:18:20.496Z,8.90
2023-02-24T04:20:53.129Z,8.90
2023-02-24T04:23:28.048Z,8.90
2023-02-24T04:25:58.167Z,8.90
2023-02-24T04:28:30.082Z,8.90
2023-02-24T04:31:06.135Z,8.80
2023-02-24T04:33:35.719Z,8.80
2023-02-24T04:36:05.173Z,8.70
2023-02-24T04:38:34.011Z,8.70
2023-02-24T04:41:04.262Z,8.70
2023-02-24T04:43:33.225Z,8.60
2023-02-24T04:46:07.712Z,8.60
2023-02-24T04:48:37.031Z,8.60
2023-02-24T04:51:06.760Z,8.50
2023-02-24T04:53:36.656Z,8.50
2023-02-24T04:56:09.465Z,8.40
2023-02-24T04:58:42.731Z,8.40
2023-02-24T05:01:12.721Z,8.40
2023-02-24T05:03:43.583Z,8.30
2023-02-24T05:06:17.874Z,8.30
2023-02-24T05:08:46.884Z,8.30
2023-02-24T05:11:19.616Z,8.40
2023-02-24T05:13:48.728Z,8.40
2023-02-24T05:16:20.688Z,8.40
2023-02-24T05:18:49.794Z,8.40
2023-02-24T05:21:36.658Z,8.30
2023-02-24T05:24:07.507Z,8.30
2023-02-24T05:26:42.033Z,8.30
2023-02-24T05:29:13.689Z,8.30
2023-02-24T05:31:42.747Z,8.30
2023-02-24T05:34:17.195Z,8.30
2023-02-24T05:36:46.584Z,8.30
2023-02-24T05:39:19.414Z,8.30
2023-02-24T05:41:54.757Z,8.30
2023-02-24T05:44:26.475Z,8.30
2023-02-24T05:46:59.524Z,8.30
2023-02-24T05:49:33.190Z,8.40
2023-02-24T05:52:08.050Z,8.40
2023-02-24T05:54:41.447Z,8.40
2023-02-24T05:57:14.945Z,8.40
2023-02-24T05:59:45.875Z,8.40
2023-02-24T06:02:18.327Z,8.30
2023-02-24T06:04:51.473Z,8.40
2023-02-24T06:07:25.134Z,8.40
2023-02-24T06:09:57.541Z,8.50
2023-02-24T06:12:30.984Z,8.50
2023-02-24T06:14:59.826Z,8.50
2023-02-24T06:17:29.747Z,8.50
2023-02-24T06:19:58.637Z,8.60
2023-02-24T06:22:28.958Z,8.70
2023-02-24T06:24:58.151Z,8.70
2023-02-24T06:27:28.662Z,8.80
2023-02-24T06:29:57.766Z,8.80
2023-02-24T06:32:28.197Z,8.80
2023-02-24T06:34:59.451Z,8.80
2023-02-24T06:37:28.394Z,8.80
2023-02-24T06:39:58.438Z,8.70
2023-02-24T06:42:28.923Z,8.60
2023-02-24T06:44:57.793Z,8.60
2023-02-24T06:47:27.159Z,8.70
2023-02-24T06:49:56.414Z,8.70
2023-02-24T06:52:26.548Z,8.70
2023-02-24T06:54:55.310Z,8.70
2023-02-24T06:57:24.150Z,8.80
2023-02-24T06:59:56.193Z,8.80
2023-02-24T07:02:30.093Z,8.90
2023-02-24T07:04:58.889Z,8.90
2023-02-24T07:07:29.255Z,8.90
2023-02-24T07:09:58.050Z,8.90
2023-02-24T07:12:26.972Z,9.10
2023-02-24T07:14:57.213Z,9.20
2023-02-24T07:17:26.567Z,9.30
2023-02-24T07:19:55.390Z,9.40
2023-02-24T07:22:25.406Z,9.50
2023-02-24T07:25:00.755Z,9.70
2023-02-24T07:27:30.423Z,10.00
2023-02-24T07:30:06.232Z,10.30
2023-02-24T07:32:35.403Z,10.50
2023-02-24T07:35:04.469Z,10.80
2023-02-24T07:37:34.905Z,11.20
2023-02-24T07:40:08.216Z,11.70
2023-02-24T07:42:36.940Z,12.10
2023-02-24T07:45:10.518Z,12.50
2023-02-24T07:47:41.207Z,12.90
2023-02-24T07:50:14.694Z,13.20
2023-02-24T07:52:43.545Z,13.50
2023-02-24T07:55:12.962Z,13.80
2023-02-24T07:57:46.642Z,14.10
2023-02-24T08:00:19.767Z,14.40
2023-02-24T08:02:52.038Z,14.60
2023-02-24T08:05:21.666Z,14.80
2023-02-24T08:07:50.658Z,14.90
2023-02-24T08:10:26.778Z,15.30
2023-02-24T08:13:03.162Z,15.80
2023-02-24T08:15:35.383Z,16.00
2023-02-24T08:18:04.407Z,15.80
2023-02-24T08:20:52.051Z,16.00
2023-02-24T08:23:23.619Z,16.30
2023-02-24T08:25:53.872Z,16.70
2023-02-24T08:28:26.993Z,16.60
2023-02-24T08:30:57.181Z,16.30
2023-02-24T08:33:30.283Z,15.70
2023-02-24T08:36:02.702Z,15.40
2023-02-24T08:38:52.290Z,15.20
2023-02-24T08:41:29.295Z,15.10
2023-02-24T08:43:58.143Z,15.20
2023-02-24T08:46:37.925Z,15.10
2023-02-24T08:49:11.021Z,15.20
2023-02-24T08:51:44.010Z,15.20
2023-02-24T08:54:16.782Z,15.10
2023-02-24T08:56:49.290Z,15.10
2023-02-24T08:59:46.697Z,15.10
2023-02-24T09:02:24.332Z,14.90
2023-02-24T09:04:56.415Z,14.80
2023-02-24T09:07:29.959Z,14.60
2023-02-24T09:10:00.818Z,14.50
2023-02-24T09:12:31.936Z,14.50
2023-02-24T09:15:04.742Z,14.50
2023-02-24T09:17:50.005Z,14.60
2023-02-24T09:20:56.459Z,14.50
2023-02-24T09:23:30.972Z,14.60
2023-02-24T09:26:11.291Z,14.70
2023-02-24T09:28:48.829Z,14.60
2023-02-24T09:31:18.299Z,14.60
2023-02-24T09:33:51.186Z,14.70
2023-02-24T09:36:28.168Z,14.70
2023-02-24T09:39:14.652Z,14.70
2023-02-24T09:41:57.380Z,14.70
2023-02-24T09:44:38.324Z,14.80
2023-02-24T09:47:20.132Z,14.80
2023-02-24T09:49:59.076Z,15.10
2023-02-24T09:52:39.875Z,15.10
2023-02-24T09:55:25.211Z,14.90
2023-02-24T09:58:29.312Z,14.90
2023-02-24T10:01:30.971Z,14.90
2023-02-24T10:04:20.560Z,15.10
2023-02-24T10:06:58.364Z,15.10
2023-02-24T10:09:34.730Z,15.00
2023-02-24T10:12:15.083Z,15.00
2023-02-24T10:15:00.069Z,14.80
2023-02-24T10:17:40.350Z,14.80
2023-02-24T10:20:31.228Z,14.60
2023-02-24T10:23:11.038Z,14.70
2023-02-24T10:25:54.153Z,14.80
2023-02-24T10:28:37.133Z,14.80
2023-02-24T10:31:25.593Z,14.90
2023-02-24T10:34:01.149Z,15.00
2023-02-24T10:36:36.381Z,15.20
2023-02-24T10:39:17.082Z,15.50
2023-02-24T10:41:49.800Z,15.70
2023-02-24T10:44:25.207Z,15.80
2023-02-24T10:47:12.681Z,15.80
2023-02-24T10:49:57.026Z,16.20
2023-02-24T10:52:51.065Z,16.20
2023-02-24T10:55:53.545Z,16.10
2023-02-24T10:58:38.504Z,16.10
2023-02-24T11:01:18.759Z,16.70
2023-02-24T11:04:23.050Z,17.10
2023-02-24T11:06:58.385Z,17.50
2023-02-24T11:09:35.291Z,17.30
2023-02-24T11:12:38.373Z,17.40
2023-02-24T11:15:47.105Z,17.80
2023-02-24T11:18:23.224Z,17.90
2023-02-24T11:20:56.728Z,18.00
2023-02-24T11:23:32.040Z,17.60
2023-02-24T11:26:05.153Z,17.30
2023-02-24T11:29:00.952Z,17.10
2023-02-24T11:31:53.194Z,17.00
2023-02-24T11:34:38.666Z,17.30
2023-02-24T11:37:20.470Z,17.40
2023-02-24T11:40:01.164Z,17.60
2023-02-24T11:42:37.515Z,17.80
2023-02-24T11:45:22.796Z,17.90
2023-02-24T11:48:00.877Z,18.10
2023-02-24T11:50:45.998Z,18.10
2023-02-24T11:53:28.155Z,18.00
2023-02-24T11:56:05.132Z,18.10
2023-02-24T11:58:45.536Z,18.00
2023-02-24T12:01:25.493Z,17.80
2023-02-24T12:04:08.768Z,17.50
2023-02-24T12:06:48.502Z,17.20
2023-02-24T12:09:24.625Z,16.90
2023-02-24T12:12:00.165Z,16.70
2023-02-24T12:14:39.004Z,16.50
2023-02-24T12:17:23.428Z,16.30
2023-02-24T12:20:05.691Z,16.10
2023-02-24T12:22:46.138Z,16.10
2023-02-24T12:25:16.843Z,16.00
2023-02-24T12:28:06.604Z,16.00
2023-02-24T12:31:03.424Z,15.90
2023-02-24T12:33:52.368Z,15.90
2023-02-24T12:36:44.731Z,15.90
2023-02-24T12:39:19.089Z,15.70
2023-02-24T12:42:14.387Z,15.70
2023-02-24T12:44:54.998Z,15.80
2023-02-24T12:47:38.782Z,15.80
2023-02-24T12:50:37.524Z,15.80
2023-02-24T12:53:19.589Z,15.90
2023-02-24T12:56:01.597Z,16.00
2023-02-24T12:58:37.352Z,15.90
2023-02-24T13:01:19.732Z,15.90
2023-02-24T13:04:05.265Z,16.00
2023-02-24T13:06:59.630Z,16.00
2023-02-24T13:09:42.246Z,15.90
2023-02-24T13:12:20.452Z,15.80
2023-02-24T13:14:51.280Z,15.80
2023-02-24T13:17:27.017Z,15.90
2023-02-24T13:19:57.658Z,16.00
2023-02-24T13:22:32.352Z,16.10
2023-02-24T13:25:19.017Z,16.10
2023-02-24T13:28:00.242Z,16.00
2023-02-24T13:30:38.171Z,16.00
2023-02-24T13:33:24.821Z,16.10
2023-02-24T13:36:10.473Z,16.10
2023-02-24T13:38:44.151Z,16.10
2023-02-24T13:41:40.782Z,16.00
2023-02-24T13:44:28.595Z,16.00
2023-02-24T13:47:44.775Z,15.90
2023-02-24T13:50:25.521Z,15.90
2023-02-24T13:53:26.167Z,15.90
2023-02-24T13:56:17.176Z,15.90
2023-02-24T13:59:07.039Z,15.90
2023-02-24T14:01:50.739Z,15.80
2023-02-24T14:04:24.495Z,15.70
2023-02-24T14:06:58.593Z,15.70
2023-02-24T14:09:33.619Z,15.60
2023-02-24T14:12:18.053Z,15.50
2023-02-24T14:14:48.860Z,15.50
2023-02-24T14:17:28.851Z,15.30
2023-02-24T14:20:11.139Z,15.30
2023-02-24T14:22:46.637Z,15.30
2023-02-24T14:25:16.895Z,15.30
2023-02-24T14:27:51.510Z,15.20
2023-02-24T14:30:32.688Z,15.10
2023-02-24T14:33:02.973Z,15.10
2023-02-24T14:35:38.002Z,15.00
2023-02-24T14:38:07.538Z,15.00
2023-02-24T14:40:36.340Z,15.10
2023-02-24T14:43:16.225Z,15.20
2023-02-24T14:45:50.084Z,15.20
2023-02-24T14:48:26.017Z,15.20
2023-02-24T14:50:58.149Z,15.10
2023-02-24T14:53:31.336Z,15.10
2023-02-24T14:56:06.124Z,15.00
2023-02-24T14:58:46.098Z,14.90
2023-02-24T15:01:24.159Z,14.90
2023-02-24T15:03:56.501Z,14.80
2023-02-24T15:06:29.995Z,14.70
2023-02-24T15:09:02.053Z,14.70
2023-02-24T15:11:33.653Z,14.70
2023-02-24T15:14:07.436Z,14.70
2023-02-24T15:16:42.999Z,14.80
2023-02-24T15:19:28.228Z,14.80
2023-02-24T15:21:57.162Z,14.80
2023-02-24T15:24:31.074Z,14.90
2023-02-24T15:27:03.267Z,14.80
2023-02-24T15:29:33.531Z,14.90
2023-02-24T15:32:07.779Z,14.80
2023-02-24T15:34:38.533Z,14.90
2023-02-24T15:37:17.980Z,14.80
2023-02-24T15:39:47.221Z,14.80
2023-02-24T15:42:28.689Z,14.70
2023-02-24T15:45:01.343Z,14.70
2023-02-24T15:47:33.574Z,14.70
2023-02-24T15:50:02.770Z,14.80
2023-02-24T15:52:31.943Z,14.80
2023-02-24T15:55:02.712Z,14.70
2023-02-24T15:57:33.643Z,14.70
2023-02-24T16:00:07.896Z,14.70
2023-02-24T16:02:36.700Z,14.70
2023-02-24T16:05:05.936Z,14.70
2023-02-24T16:07:38.281Z,14.70
2023-02-24T16:10:09.832Z,14.60
2023-02-24T16:12:49.584Z,14.60
2023-02-24T16:15:26.672Z,14.50
2023-02-24T16:17:56.715Z,14.50
2023-02-24T16:20:28.724Z,14.50
2023-02-24T16:22:59.619Z,14.50
2023-02-24T16:25:30.723Z,14.40
2023-02-24T16:27:59.637Z,14.40
2023-02-24T16:30:31.459Z,14.40
2023-02-24T16:55:43.224Z,14.40
2023-02-24T16:58:12.879Z,13.90
2023-02-24T17:00:47.870Z,13.80
2023-02-24T17:03:21.518Z,13.80
2023-02-24T17:05:51.026Z,13.80
2023-02-24T17:08:20.545Z,13.70
2023-02-24T17:10:51.171Z,13.70
2023-02-24T17:13:22.846Z,13.60
2023-02-24T17:15:57.091Z,13.60
2023-02-24T17:18:30.019Z,13.50
2023-02-24T17:20:58.819Z,13.50
2023-02-24T17:23:27.800Z,13.40
2023-02-24T17:26:01.570Z,13.30
2023-02-24T17:28:30.990Z,13.20
2023-02-24T17:31:01.275Z,13.20
2023-02-24T17:33:30.176Z,13.20
2023-02-24T17:35:58.992Z,13.10
2023-02-24T17:38:28.777Z,13.10
2023-02-24T17:40:57.707Z,13.10
2023-02-24T17:43:26.446Z,13.10
2023-02-24T17:45:55.281Z,13.00
2023-02-24T17:48:25.538Z,13.00
2023-02-24T17:50:54.488Z,13.00
2023-02-24T17:53:23.555Z,13.00
2023-02-24T17:56:02.380Z,13.00
2023-02-24T17:58:32.475Z,13.00
2023-02-24T18:01:02.157Z,12.90
2023-02-24T18:03:33.670Z,12.80
2023-02-24T18:08:36.954Z,12.80
2023-02-24T18:11:07.919Z,12.80
2023-02-24T18:13:36.912Z,12.80
2023-02-24T18:16:13.628Z,12.90
2023-02-24T18:18:44.083Z,12.90
2023-02-24T18:21:13.089Z,12.90
2023-02-24T18:23:42.031Z,12.90
2023-02-24T18:26:13.732Z,13.00
2023-02-24T18:28:42.641Z,12.90
2023-02-24T18:31:14.516Z,12.90
2023-02-24T18:33:45.582Z,12.90
2023-02-24T18:36:15.511Z,13.00
2023-02-24T18:38:45.178Z,12.90
2023-02-24T18:41:18.450Z,12.90
2023-02-24T18:43:50.453Z,13.00
2023-02-24T18:46:20.761Z,12.90
2023-02-24T18:48:52.587Z,12.90
2023-02-24T18:51:26.418Z,12.90
2023-02-24T18:53:56.133Z,12.90
2023-02-24T18:56:27.774Z,12.70
2023-02-24T18:59:01.423Z,12.70
2023-02-24T19:01:33.493Z,12.70
2023-02-24T19:04:05.134Z,12.60
2023-02-24T19:06:35.513Z,12.60
2023-02-24T19:09:09.786Z,12.50
2023-02-24T19:11:41.681Z,12.50
2023-02-24T19:14:16.127Z,12.50
2023-02-24T19:16:45.819Z,12.50
2023-02-24T19:19:17.703Z,12.40
2023-02-24T19:21:48.514Z,12.30
2023-02-24T19:24:17.878Z,12.30
2023-02-24T19:26:47.700Z,12.30
2023-02-24T19:29:17.369Z,12.30
2023-02-24T19:31:46.811Z,12.30
2023-02-24T19:34:19.333Z,12.40
2023-02-24T19:36:48.680Z,12.40
2023-02-24T19:39:20.318Z,12.30
2023-02-24T19:41:49.968Z,12.30
2023-02-24T19:44:19.222Z,12.30
2023-02-24T19:46:48.370Z,12.40
2023-02-24T19:49:18.797Z,12.40
2023-02-24T19:51:48.398Z,12.40
2023-02-24T19:54:17.505Z,12.40
2023-02-24T19:56:46.498Z,12.40
2023-02-24T19:59:15.368Z,12.40
2023-02-24T20:01:44.719Z,12.50
2023-02-24T20:04:16.277Z,12.40
2023-02-24T20:06:46.910Z,12.40
2023-02-24T20:09:21.464Z,12.40
2023-02-24T20:11:54.137Z,12.30
2023-02-24T20:14:23.257Z,12.30
2023-02-24T20:16:52.667Z,12.20
2023-02-24T20:19:21.914Z,12.20
2023-02-24T20:21:52.238Z,12.20
2023-02-24T20:24:21.295Z,12.10
2023-02-24T20:26:51.168Z,12.10
2023-02-24T20:29:23.380Z,12.10
2023-02-24T20:31:53.114Z,12.10
2023-02-24T20:34:22.841Z,12.10
2023-02-24T20:36:53.294Z,12.00
2023-02-24T20:39:25.027Z,12.00
2023-02-24T20:41:57.034Z,11.90
2023-02-24T20:44:27.280Z,11.90
2023-02-24T20:46:56.447Z,11.90
2023-02-24T20:49:27.541Z,11.90
2023-02-24T20:52:00.819Z,11.80
2023-02-24T20:54:29.830Z,11.80
2023-02-24T20:56:58.561Z,11.80
2023-02-24T20:59:27.528Z,11.70
2023-02-24T21:01:56.578Z,11.70
2023-02-24T21:04:25.627Z,11.70
2023-02-24T21:06:56.179Z,11.80
2023-02-24T21:09:32.000Z,11.80
2023-02-24T21:12:01.098Z,11.70
2023-02-24T21:14:32.978Z,11.80
2023-02-24T21:17:01.926Z,11.70
2023-02-24T21:19:31.638Z,11.70
2023-02-24T21:22:00.875Z,11.70
2023-02-24T21:24:34.199Z,11.70
2023-02-24T21:27:03.257Z,11.70
2023-02-24T21:29:32.236Z,11.70
2023-02-24T21:32:01.263Z,11.70
2023-02-24T21:34:30.653Z,11.70
2023-02-24T21:37:01.666Z,11.60
2023-02-24T21:39:32.661Z,11.60
2023-02-24T21:42:01.648Z,11.60
2023-02-24T21:44:30.618Z,11.60
2023-02-24T21:46:59.496Z,11.50
2023-02-24T21:49:28.505Z,11.40
2023-02-24T21:51:57.449Z,11.40
2023-02-24T21:54:28.818Z,11.40
2023-02-24T21:56:59.238Z,11.50
2023-02-24T21:59:28.059Z,11.50
2023-02-24T22:01:56.914Z,11.50
2023-02-24T22:04:25.853Z,11.40
2023-02-24T22:06:54.751Z,11.40
2023-02-24T22:09:26.732Z,11.40
2023-02-24T22:11:55.546Z,11.40
2023-02-24T22:14:25.820Z,11.40
2023-02-24T22:16:54.701Z,11.40
2023-02-24T22:19:23.434Z,11.40
2023-02-24T22:21:52.538Z,11.40
2023-02-24T22:24:21.765Z,11.40
2023-02-24T22:26:51.196Z,11.40
2023-02-24T22:29:20.058Z,11.40
2023-02-24T22:31:50.316Z,11.40
2023-02-24T22:34:19.175Z,11.40
2023-02-24T22:36:47.967Z,11.40
2023-02-24T22:39:17.498Z,11.40
2023-02-24T22:41:47.721Z,11.40
2023-02-24T22:44:19.452Z,11.30
2023-02-24T22:46:49.930Z,11.30
2023-02-24T22:49:19.704Z,11.20
2023-02-24T22:52:06.988Z,11.20
2023-02-24T22:54:55.690Z,11.10
2023-02-24T22:57:43.041Z,11.10
2023-02-24T23:00:23.944Z,11.10
2023-02-24T23:03:12.657Z,11.10
2023-02-24T23:05:41.953Z,11.00
2023-02-24T23:08:11.055Z,11.00
2023-02-24T23:10:40.105Z,11.00
2023-02-24T23:13:08.837Z,11.00
2023-02-24T23:15:39.430Z,11.00
2023-02-24T23:18:08.675Z,10.90
2023-02-24T23:20:38.780Z,10.90
2023-02-24T23:23:08.330Z,10.90
2023-02-24T23:25:37.324Z,10.80
2023-02-24T23:28:06.880Z,10.90
2023-02-24T23:30:36.564Z,10.90
2023-02-24T23:33:05.601Z,10.90
2023-02-24T23:35:37.475Z,10.90
2023-02-24T23:38:06.353Z,10.90
2023-02-24T23:40:48.065Z,11.00
2023-02-24T23:43:18.100Z,11.00
2023-02-24T23:45:47.189Z,11.00
2023-02-24T23:48:16.360Z,11.00
2023-02-24T23:50:47.181Z,11.00
2023-02-24T23:53:16.010Z,11.00
2023-02-24T23:55:45.244Z,11.00
2023-02-24T23:58:14.147Z,11.00
